createdAt,value
2023-01-19T00:02:13.284Z,96955.52
2023-01-19T00:04:46.131Z,96951.73
2023-01-19T00:07:22.128Z,96953.73
2023-01-19T00:09:57.443Z,96951.95
2023-01-19T00:12:29.760Z,96951.87
2023-01-19T00:15:02.932Z,96951.59
2023-01-19T00:17:36.793Z,96959.14
2023-01-19T00:20:11.440Z,96954.30
2023-01-19T00:22:43.766Z,96953.95
2023-01-19T00:25:16.727Z,96955.43
2023-01-19T00:27:50.889Z,96954.30
2023-01-19T00:30:26.577Z,96954.15
2023-01-19T00:33:04.858Z,96951.66
2023-01-19T00:35:37.357Z,96955.42
2023-01-19T00:38:13.174Z,96954.38
2023-01-19T00:40:45.916Z,96952.98
2023-01-19T00:43:18.217Z,96953.73
2023-01-19T00:45:51.183Z,96958.38
2023-01-19T00:48:25.988Z,96957.09
2023-01-19T00:50:58.301Z,96959.02
2023-01-19T00:53:32.649Z,96955.06
2023-01-19T00:56:09.391Z,96952.55
2023-01-19T00:58:42.388Z,96948.14
2023-01-19T01:01:15.085Z,96942.98
2023-01-19T01:03:47.700Z,96939.89
2023-01-19T01:06:24.217Z,96940.84
2023-01-19T01:08:56.614Z,96938.46
2023-01-19T01:11:32.033Z,96940.06
2023-01-19T01:14:05.208Z,96944.17
2023-01-19T01:16:42.444Z,96949.23
2023-01-19T01:19:14.939Z,96945.71
2023-01-19T01:21:51.283Z,96942.48
2023-01-19T01:24:25.092Z,96944.27
2023-01-19T01:26:57.620Z,96944.86
2023-01-19T01:29:35.484Z,96943.86
2023-01-19T01:32:10.567Z,96939.27
2023-01-19T01:34:43.369Z,96934.77
2023-01-19T01:37:15.837Z,96930.50
2023-01-19T01:39:48.207Z,96928.60
2023-01-19T01:42:26.740Z,96923.16
2023-01-19T01:45:02.065Z,96923.27
2023-01-19T01:47:38.789Z,96922.34
2023-01-19T01:50:15.812Z,96919.13
2023-01-19T01:53:06.339Z,96920.87
2023-01-19T01:55:49.603Z,96924.29
2023-01-19T01:58:25.239Z,96922.55
2023-01-19T02:01:18.652Z,96923.59
2023-01-19T02:03:56.890Z,96927.12
2023-01-19T02:06:30.733Z,96930.17
2023-01-19T02:09:29.570Z,96932.62
2023-01-19T02:12:20.049Z,96937.30
2023-01-19T02:14:53.116Z,96946.41
2023-01-19T02:17:28.695Z,96954.09
2023-01-19T02:20:02.916Z,96961.59
2023-01-19T02:22:49.841Z,96961.08
2023-01-19T02:25:29.202Z,96959.04
2023-01-19T02:28:03.564Z,96953.77
2023-01-19T02:30:38.454Z,96953.50
2023-01-19T02:33:10.913Z,96954.79
2023-01-19T02:35:44.917Z,96949.23
2023-01-19T02:38:20.168Z,96952.27
2023-01-19T02:40:53.313Z,96956.60
2023-01-19T02:43:26.510Z,96963.31
2023-01-19T02:45:59.092Z,96962.28
2023-01-19T02:48:31.759Z,96968.02
2023-01-19T02:51:12.757Z,96965.20
2023-01-19T02:53:59.557Z,96965.41
2023-01-19T02:56:51.064Z,96964.64
2023-01-19T02:59:38.460Z,96964.73
2023-01-19T03:02:30.014Z,96960.50
2023-01-19T03:05:22.677Z,96956.00
2023-01-19T03:08:08.296Z,96964.27
2023-01-19T03:10:48.864Z,96968.37
2023-01-19T03:13:31.185Z,96969.69
2023-01-19T03:16:11.621Z,96974.67
2023-01-19T03:18:51.124Z,96971.46
2023-01-19T03:21:27.921Z,96977.35
2023-01-19T03:24:04.073Z,96979.30
2023-01-19T03:26:44.141Z,96976.87
2023-01-19T03:29:20.999Z,96972.84
2023-01-19T03:31:55.422Z,96971.19
2023-01-19T03:34:29.618Z,96970.89
2023-01-19T03:37:06.945Z,96968.33
2023-01-19T03:39:39.402Z,96958.89
2023-01-19T03:42:15.858Z,96954.96
2023-01-19T03:44:51.385Z,96950.99
2023-01-19T03:47:25.072Z,96955.71
2023-01-19T03:49:59.635Z,96955.61
2023-01-19T03:52:33.877Z,96960.63
2023-01-19T03:55:07.529Z,96960.73
2023-01-19T03:57:40.419Z,96962.47
2023-01-19T04:00:18.376Z,96968.59
2023-01-19T04:02:53.903Z,96976.16
2023-01-19T04:05:29.560Z,96981.17
2023-01-19T04:08:02.004Z,96985.42
2023-01-19T04:10:39.668Z,96986.05
2023-01-19T04:13:12.272Z,96986.95
2023-01-19T04:15:44.763Z,96988.14
2023-01-19T04:18:20.170Z,96988.04
2023-01-19T04:20:52.610Z,96988.41
2023-01-19T04:23:25.565Z,96989.55
2023-01-19T04:26:02.986Z,96994.35
2023-01-19T04:28:37.267Z,96996.52
2023-01-19T04:31:10.185Z,97000.56
2023-01-19T04:33:42.941Z,96996.08
2023-01-19T04:36:15.700Z,96991.93
2023-01-19T04:38:49.094Z,96995.04
2023-01-19T04:41:21.466Z,96998.02
2023-01-19T04:43:53.813Z,97006.38
2023-01-19T04:46:26.173Z,97021.48
2023-01-19T04:48:58.504Z,97036.30
2023-01-19T04:51:30.949Z,97040.90
2023-01-19T04:54:04.260Z,97044.73
2023-01-19T04:56:40.919Z,97043.86
2023-01-19T04:59:16.044Z,97046.87
2023-01-19T05:01:49.537Z,97050.82
2023-01-19T05:04:22.530Z,97043.66
2023-01-19T05:06:56.114Z,97039.79
2023-01-19T05:09:28.479Z,97040.21
2023-01-19T05:12:01.321Z,97041.25
2023-01-19T05:14:34.427Z,97051.88
2023-01-19T05:17:06.942Z,97058.88
2023-01-19T05:19:39.653Z,97058.02
2023-01-19T05:22:18.115Z,97057.55
2023-01-19T05:24:50.647Z,97064.61
2023-01-19T05:27:26.407Z,97070.07
2023-01-19T05:30:01.902Z,97075.23
2023-01-19T05:32:34.347Z,97081.64
2023-01-19T05:35:07.375Z,97079.67
2023-01-19T05:37:39.801Z,97082.99
2023-01-19T05:40:13.615Z,97082.61
2023-01-19T05:42:47.870Z,97081.59
2023-01-19T05:45:22.859Z,97081.98
2023-01-19T05:47:57.968Z,97087.50
2023-01-19T05:50:33.118Z,97081.34
2023-01-19T05:53:05.624Z,97078.55
2023-01-19T05:55:38.112Z,97079.15
2023-01-19T05:58:10.421Z,97081.46
2023-01-19T06:00:43.709Z,97085.53
2023-01-19T06:03:21.824Z,97081.26
2023-01-19T06:05:58.181Z,97078.42
2023-01-19T06:08:30.684Z,97070.45
2023-01-19T06:11:03.137Z,97065.33
2023-01-19T06:13:35.736Z,97070.10
2023-01-19T06:16:10.697Z,97072.92
2023-01-19T06:18:43.140Z,97074.77
2023-01-19T06:21:15.499Z,97075.36
2023-01-19T06:23:48.180Z,97072.26
2023-01-19T06:26:20.584Z,97073.40
2023-01-19T06:28:53.497Z,97074.91
2023-01-19T06:31:25.975Z,97071.10
2023-01-19T06:33:58.247Z,97070.34
2023-01-19T06:36:33.176Z,97080.70
2023-01-19T06:39:06.032Z,97086.94
2023-01-19T06:41:41.246Z,97097.29
2023-01-19T06:44:16.048Z,97102.77
2023-01-19T06:46:49.186Z,97107.30
2023-01-19T06:49:21.498Z,97120.06
2023-01-19T06:51:53.846Z,97137.53
2023-01-19T06:54:27.289Z,97144.36
2023-01-19T06:57:00.199Z,97147.34
2023-01-19T06:59:33.748Z,97146.29
2023-01-19T07:02:26.429Z,97137.59
2023-01-19T07:05:00.524Z,97147.31
2023-01-19T07:07:32.912Z,97148.29
2023-01-19T07:10:06.893Z,97146.58
2023-01-19T07:12:39.424Z,97152.38
2023-01-19T07:15:15.580Z,97156.64
2023-01-19T07:17:47.944Z,97164.96
2023-01-19T07:20:20.815Z,97169.95
2023-01-19T07:22:58.751Z,97175.33
2023-01-19T07:25:32.099Z,97179.90
2023-01-19T07:28:07.511Z,97187.31
2023-01-19T07:30:39.923Z,97198.75
2023-01-19T07:33:12.418Z,97203.27
2023-01-19T07:35:49.377Z,97205.33
2023-01-19T07:38:24.120Z,97209.77
2023-01-19T07:41:03.038Z,97209.75
2023-01-19T07:43:35.391Z,97213.22
2023-01-19T07:46:10.826Z,97214.20
2023-01-19T07:48:44.505Z,97222.20
2023-01-19T07:51:20.723Z,97219.83
2023-01-19T07:53:53.989Z,97221.05
2023-01-19T07:56:27.949Z,97219.05
2023-01-19T07:59:00.409Z,97215.08
2023-01-19T08:01:33.025Z,97216.02
2023-01-19T08:04:05.908Z,97212.64
2023-01-19T08:06:41.083Z,97205.41
2023-01-19T08:09:13.409Z,97201.02
2023-01-19T08:11:47.361Z,97194.62
2023-01-19T08:14:19.707Z,97189.55
2023-01-19T08:16:51.904Z,97194.09
2023-01-19T08:19:24.504Z,97194.86
2023-01-19T08:21:59.204Z,97196.40
2023-01-19T08:24:31.659Z,97199.34
2023-01-19T08:27:07.055Z,97214.53
2023-01-19T08:29:42.565Z,97224.15
2023-01-19T08:32:14.952Z,97228.82
2023-01-19T08:34:47.435Z,97225.17
2023-01-19T08:37:19.755Z,97224.41
2023-01-19T08:39:53.722Z,97227.23
2023-01-19T08:42:26.042Z,97231.16
2023-01-19T08:45:01.171Z,97238.09
2023-01-19T08:47:33.538Z,97235.84
2023-01-19T08:50:06.146Z,97227.16
2023-01-19T08:52:38.502Z,97226.98
2023-01-19T08:55:12.657Z,97229.19
2023-01-19T08:57:45.005Z,97225.28
2023-01-19T09:00:19.017Z,97222.02
2023-01-19T09:02:51.822Z,97221.73
2023-01-19T09:05:24.453Z,97221.48
2023-01-19T09:07:57.037Z,97228.38
2023-01-19T09:10:31.736Z,97231.02
2023-01-19T09:13:05.161Z,97230.73
2023-01-19T09:15:38.225Z,97226.98
2023-01-19T09:18:13.595Z,97233.51
2023-01-19T09:20:47.682Z,97239.27
2023-01-19T09:23:22.749Z,97235.97
2023-01-19T09:25:59.797Z,97246.42
2023-01-19T09:28:32.614Z,97253.08
2023-01-19T09:31:09.629Z,97248.11
2023-01-19T09:33:44.364Z,97253.77
2023-01-19T09:36:19.370Z,97261.65
2023-01-19T09:38:51.786Z,97260.98
2023-01-19T09:41:26.195Z,97261.34
2023-01-19T09:44:01.100Z,97267.77
2023-01-19T09:46:39.998Z,97274.22
2023-01-19T09:49:16.926Z,97280.26
2023-01-19T09:51:51.487Z,97278.77
2023-01-19T09:54:31.292Z,97271.80
2023-01-19T09:57:05.504Z,97269.47
2023-01-19T09:59:38.930Z,97269.69
2023-01-19T10:02:24.532Z,97264.14
2023-01-19T10:05:02.559Z,97260.57
2023-01-19T10:07:53.456Z,97250.96
2023-01-19T10:10:27.391Z,97247.91
2023-01-19T10:13:05.457Z,97245.45
2023-01-19T10:15:46.998Z,97239.94
2023-01-19T10:18:25.409Z,97236.90
2023-01-19T10:21:04.616Z,97229.61
2023-01-19T10:23:45.988Z,97229.44
2023-01-19T10:26:24.670Z,97226.51
2023-01-19T10:29:03.377Z,97223.14
2023-01-19T10:31:39.109Z,97221.60
2023-01-19T10:34:21.548Z,97227.17
2023-01-19T10:37:03.599Z,97225.30
2023-01-19T10:39:38.731Z,97229.84
2023-01-19T10:42:17.054Z,97229.27
2023-01-19T10:44:50.554Z,97229.44
2023-01-19T10:47:27.732Z,97227.13
2023-01-19T10:50:22.798Z,97219.45
2023-01-19T10:52:57.567Z,97214.42
2023-01-19T10:55:33.177Z,97214.81
2023-01-19T10:58:07.015Z,97212.91
2023-01-19T11:00:44.369Z,97203.45
2023-01-19T11:03:25.964Z,97195.27
2023-01-19T11:06:26.346Z,97196.11
2023-01-19T11:09:16.948Z,97193.44
2023-01-19T11:11:52.526Z,97191.98
2023-01-19T11:14:27.598Z,97197.56
2023-01-19T11:17:00.919Z,97200.39
2023-01-19T11:19:35.040Z,97194.95
2023-01-19T11:22:22.418Z,97190.20
2023-01-19T11:24:58.419Z,97189.91
2023-01-19T11:27:32.289Z,97190.32
2023-01-19T11:30:18.601Z,97189.29
2023-01-19T11:32:54.548Z,97183.83
2023-01-19T11:35:38.040Z,97190.59
2023-01-19T11:38:19.319Z,97191.33
2023-01-19T11:40:56.855Z,97193.50
2023-01-19T11:43:47.477Z,97190.01
2023-01-19T11:46:22.234Z,97182.54
2023-01-19T11:49:02.213Z,97182.94
2023-01-19T11:51:41.221Z,97184.42
2023-01-19T11:54:24.858Z,97183.10
2023-01-19T11:56:59.827Z,97184.87
2023-01-19T11:59:32.169Z,97185.11
2023-01-19T12:02:18.454Z,97192.94
2023-01-19T12:04:55.712Z,97192.44
2023-01-19T12:07:32.305Z,97188.27
2023-01-19T12:10:17.026Z,97195.14
2023-01-19T12:12:50.339Z,97194.97
2023-01-19T12:15:28.058Z,97188.32
2023-01-19T12:18:02.965Z,97185.77
2023-01-19T12:20:38.968Z,97183.45
2023-01-19T12:23:27.122Z,97181.96
2023-01-19T12:26:14.113Z,97185.80
2023-01-19T12:28:49.469Z,97192.28
2023-01-19T12:31:23.891Z,97189.57
2023-01-19T12:33:56.680Z,97192.25
2023-01-19T12:36:41.995Z,97195.25
2023-01-19T12:39:23.383Z,97200.11
2023-01-19T12:42:09.322Z,97198.65
2023-01-19T12:44:42.771Z,97205.08
2023-01-19T12:47:24.891Z,97204.73
2023-01-19T12:50:03.845Z,97202.66
2023-01-19T12:52:41.400Z,97204.30
2023-01-19T12:55:25.108Z,97205.99
2023-01-19T12:58:05.063Z,97205.36
2023-01-19T13:00:42.852Z,97205.59
2023-01-19T13:04:00.660Z,97206.16
2023-01-19T13:07:10.620Z,97204.05
2023-01-19T13:09:43.346Z,97205.02
2023-01-19T13:12:23.264Z,97209.98
2023-01-19T13:15:35.282Z,97212.88
2023-01-19T13:18:12.152Z,97207.28
2023-01-19T13:20:52.214Z,97204.81
2023-01-19T13:23:27.867Z,97208.93
2023-01-19T13:26:15.980Z,97206.45
2023-01-19T13:28:52.062Z,97204.98
2023-01-19T13:31:25.767Z,97205.27
2023-01-19T13:34:01.098Z,97207.91
2023-01-19T13:36:36.575Z,97210.38
2023-01-19T13:39:17.062Z,97209.87
2023-01-19T13:41:55.051Z,97216.05
2023-01-19T13:44:29.690Z,97221.77
2023-01-19T13:47:04.912Z,97221.21
2023-01-19T13:49:41.551Z,97228.39
2023-01-19T13:52:22.327Z,97230.45
2023-01-19T13:54:56.247Z,97232.16
2023-01-19T13:57:30.926Z,97228.27
2023-01-19T14:00:19.025Z,97233.31
2023-01-19T14:03:02.743Z,97236.71
2023-01-19T14:05:36.921Z,97242.72
2023-01-19T14:08:18.241Z,97244.27
2023-01-19T14:11:03.042Z,97244.92
2023-01-19T14:13:40.263Z,97242.80
2023-01-19T14:16:19.980Z,97239.64
2023-01-19T14:19:02.391Z,97239.63
2023-01-19T14:21:42.292Z,97241.75
2023-01-19T14:24:19.782Z,97245.73
2023-01-19T14:26:53.975Z,97252.07
2023-01-19T14:29:28.952Z,97256.75
2023-01-19T14:32:17.315Z,97259.36
2023-01-19T14:34:52.219Z,97257.05
2023-01-19T14:37:28.657Z,97258.52
2023-01-19T14:40:05.974Z,97259.89
2023-01-19T14:42:45.317Z,97260.72
2023-01-19T14:45:21.099Z,97259.94
2023-01-19T14:48:00.719Z,97262.20
2023-01-19T14:50:38.102Z,97259.27
2023-01-19T14:53:17.304Z,97262.88
2023-01-19T14:55:52.146Z,97265.45
2023-01-19T14:58:27.557Z,97268.44
2023-01-19T15:00:59.992Z,97270.64
2023-01-19T15:03:48.018Z,97273.56
2023-01-19T15:06:23.281Z,97276.67
2023-01-19T15:08:56.480Z,97282.84
2023-01-19T15:11:32.386Z,97286.77
2023-01-19T15:14:05.267Z,97288.04
2023-01-19T15:16:37.698Z,97288.27
2023-01-19T15:19:14.292Z,97289.23
2023-01-19T15:21:47.056Z,97290.45
2023-01-19T15:24:19.652Z,97284.64
2023-01-19T15:26:52.045Z,97276.55
2023-01-19T15:29:28.556Z,97274.05
2023-01-19T15:32:00.859Z,97281.58
2023-01-19T15:34:33.607Z,97287.63
2023-01-19T15:37:06.005Z,97285.54
2023-01-19T15:39:39.826Z,97285.13
2023-01-19T15:42:15.955Z,97284.38
2023-01-19T15:44:49.000Z,97280.96
2023-01-19T15:47:21.301Z,97280.77
2023-01-19T15:49:53.954Z,97283.04
2023-01-19T15:52:26.612Z,97282.82
2023-01-19T15:54:59.154Z,97285.43
2023-01-19T15:57:31.681Z,97280.69
2023-01-19T16:00:04.359Z,97285.27
2023-01-19T16:02:42.336Z,97291.63
2023-01-19T16:05:16.119Z,97292.91
2023-01-19T16:07:48.353Z,97291.64
2023-01-19T16:10:21.044Z,97292.92
2023-01-19T16:12:53.535Z,97291.96
2023-01-19T16:15:27.495Z,97293.15
2023-01-19T16:17:59.903Z,97292.44
2023-01-19T16:20:32.174Z,97291.27
2023-01-19T16:23:20.126Z,97293.03
2023-01-19T16:26:00.329Z,97295.24
2023-01-19T16:28:32.727Z,97299.92
2023-01-19T16:31:05.580Z,97303.40
2023-01-19T16:33:38.165Z,97309.17
2023-01-19T16:36:26.658Z,97307.95
2023-01-19T16:39:01.690Z,97308.36
2023-01-19T16:41:35.940Z,97313.03
2023-01-19T16:44:09.449Z,97309.27
2023-01-19T16:46:43.687Z,97312.32
2023-01-19T16:49:20.146Z,97311.42
2023-01-19T16:51:54.927Z,97312.86
2023-01-19T16:54:28.414Z,97315.95
2023-01-19T16:57:00.826Z,97317.41
2023-01-19T16:59:33.204Z,97319.50
2023-01-19T17:02:05.837Z,97322.48
2023-01-19T17:04:38.898Z,97325.30
2023-01-19T17:07:11.208Z,97326.27
2023-01-19T17:09:43.531Z,97329.81
2023-01-19T17:12:15.791Z,97328.51
2023-01-19T17:14:48.433Z,97331.20
2023-01-19T17:17:22.695Z,97332.52
2023-01-19T17:19:55.073Z,97330.34
2023-01-19T17:22:27.403Z,97327.82
2023-01-19T17:25:02.181Z,97322.64
2023-01-19T17:27:35.976Z,97322.55
2023-01-19T17:30:09.837Z,97323.29
2023-01-19T17:32:43.098Z,97325.61
2023-01-19T17:35:17.512Z,97325.24
2023-01-19T17:37:56.918Z,97328.48
2023-01-19T17:40:30.841Z,97331.22
2023-01-19T17:43:03.537Z,97331.37
2023-01-19T17:45:37.574Z,97327.42
2023-01-19T17:48:10.329Z,97328.84
2023-01-19T17:50:42.898Z,97328.52
2023-01-19T17:53:15.156Z,97328.23
2023-01-19T17:55:47.787Z,97329.66
2023-01-19T17:58:20.199Z,97333.63
2023-01-19T18:00:52.567Z,97337.15
2023-01-19T18:03:27.216Z,97338.21
2023-01-19T18:06:06.169Z,97337.38
2023-01-19T18:08:41.431Z,97341.37
2023-01-19T18:11:14.005Z,97341.81
2023-01-19T18:13:48.863Z,97342.96
2023-01-19T18:16:24.577Z,97342.48
2023-01-19T18:18:58.305Z,97343.50
2023-01-19T18:21:31.076Z,97344.51
2023-01-19T18:24:04.888Z,97344.21
2023-01-19T18:26:38.087Z,97343.96
2023-01-19T18:29:12.899Z,97346.34
2023-01-19T18:31:45.582Z,97348.30
2023-01-19T18:34:18.097Z,97351.44
2023-01-19T18:36:50.454Z,97353.02
2023-01-19T18:39:22.776Z,97355.30
2023-01-19T18:41:55.185Z,97356.11
2023-01-19T18:44:30.519Z,97353.21
2023-01-19T18:47:05.012Z,97349.48
2023-01-19T18:49:37.291Z,97351.11
2023-01-19T18:52:09.812Z,97355.87
2023-01-19T18:54:43.278Z,97355.59
2023-01-19T18:57:17.967Z,97356.38
2023-01-19T18:59:50.372Z,97358.32
2023-01-19T19:02:25.823Z,97360.16
2023-01-19T19:05:00.803Z,97362.23
2023-01-19T19:07:33.472Z,97366.32
2023-01-19T19:10:08.084Z,97372.13
2023-01-19T19:12:40.551Z,97374.23
2023-01-19T19:15:14.253Z,97374.85
2023-01-19T19:17:46.619Z,97375.87
2023-01-19T19:20:20.631Z,97379.34
2023-01-19T19:22:53.323Z,97382.72
2023-01-19T19:25:26.117Z,97385.34
2023-01-19T19:27:59.231Z,97387.95
2023-01-19T19:30:32.974Z,97387.23
2023-01-19T19:33:05.572Z,97387.37
2023-01-19T19:35:37.982Z,97390.20
2023-01-19T19:38:10.272Z,97391.90
2023-01-19T19:40:42.732Z,97397.59
2023-01-19T19:43:15.096Z,97399.88
2023-01-19T19:45:56.705Z,97398.92
2023-01-19T19:48:29.872Z,97401.92
2023-01-19T19:51:18.005Z,97407.05
2023-01-19T19:53:51.916Z,97407.95
2023-01-19T19:56:26.307Z,97405.58
2023-01-19T19:59:01.598Z,97410.28
2023-01-19T20:01:34.706Z,97415.39
2023-01-19T20:04:14.962Z,97418.19
2023-01-19T20:06:48.500Z,97425.15
2023-01-19T20:09:21.226Z,97438.02
2023-01-19T20:11:53.481Z,97442.91
2023-01-19T20:14:25.834Z,97441.94
2023-01-19T20:17:02.862Z,97450.71
2023-01-19T20:19:35.429Z,97454.50
2023-01-19T20:22:08.000Z,97456.87
2023-01-19T20:24:40.711Z,97465.66
2023-01-19T20:27:13.243Z,97470.13
2023-01-19T20:29:51.395Z,97470.13
2023-01-19T20:32:24.109Z,97473.48
2023-01-19T20:34:58.654Z,97476.38
2023-01-19T20:37:31.095Z,97486.39
2023-01-19T20:40:03.722Z,97489.91
2023-01-19T20:42:41.391Z,97487.15
2023-01-19T20:45:14.552Z,97485.23
2023-01-19T20:47:47.360Z,97486.92
2023-01-19T20:50:20.589Z,97489.67
2023-01-19T20:52:56.073Z,97491.36
2023-01-19T20:55:28.545Z,97493.18
2023-01-19T20:58:00.923Z,97495.29
2023-01-19T21:00:34.673Z,97496.29
2023-01-19T21:03:07.295Z,97497.25
2023-01-19T21:05:42.252Z,97495.35
2023-01-19T21:08:15.298Z,97495.55
2023-01-19T21:10:47.737Z,97499.65
2023-01-19T21:13:20.082Z,97502.08
2023-01-19T21:15:52.527Z,97515.13
2023-01-19T21:18:29.364Z,97521.36
2023-01-19T21:21:04.867Z,97522.90
2023-01-19T21:23:40.636Z,97525.17
2023-01-19T21:26:13.923Z,97535.69
2023-01-19T21:28:46.314Z,97542.53
2023-01-19T21:31:18.845Z,97548.24
2023-01-19T21:33:53.685Z,97555.90
2023-01-19T21:36:27.618Z,97560.02
2023-01-19T21:39:01.403Z,97562.69
2023-01-19T21:41:35.895Z,97559.02
2023-01-19T21:44:08.653Z,97557.80
2023-01-19T21:46:45.127Z,97557.23
2023-01-19T21:49:21.357Z,97559.71
2023-01-19T21:51:53.878Z,97562.92
2023-01-19T21:54:26.684Z,97566.18
2023-01-19T21:57:00.275Z,97565.55
2023-01-19T21:59:32.640Z,97563.78
2023-01-19T22:02:05.139Z,97562.84
2023-01-19T22:04:37.534Z,97561.92
2023-01-19T22:07:13.526Z,97563.12
2023-01-19T22:09:46.036Z,97565.29
2023-01-19T22:12:18.435Z,97566.83
2023-01-19T22:14:50.758Z,97566.59
2023-01-19T22:17:23.630Z,97567.05
2023-01-19T22:19:56.137Z,97570.59
2023-01-19T22:22:33.708Z,97577.21
2023-01-19T22:25:06.434Z,97571.17
2023-01-19T22:27:41.425Z,97571.23
2023-01-19T22:30:14.389Z,97572.58
2023-01-19T22:32:46.709Z,97576.01
2023-01-19T22:35:19.207Z,97574.73
2023-01-19T22:37:51.602Z,97578.85
2023-01-19T22:40:24.653Z,97581.54
2023-01-19T22:43:01.133Z,97578.82
2023-01-19T22:45:35.966Z,97578.79
2023-01-19T22:48:09.710Z,97577.61
2023-01-19T22:50:42.097Z,97579.20
2023-01-19T22:53:14.548Z,97577.70
2023-01-19T22:55:47.690Z,97580.08
2023-01-19T22:58:21.689Z,97580.95
2023-01-19T23:00:54.826Z,97587.83
2023-01-19T23:03:27.205Z,97589.73
2023-01-19T23:06:04.396Z,97589.40
2023-01-19T23:08:37.130Z,97583.23
2023-01-19T23:11:11.721Z,97581.48
2023-01-19T23:13:45.187Z,97587.45
2023-01-19T23:16:17.830Z,97595.86
2023-01-19T23:18:55.662Z,97599.79
2023-01-19T23:21:32.758Z,97593.15
2023-01-19T23:24:11.253Z,97595.52
2023-01-19T23:26:47.043Z,97601.06
2023-01-19T23:29:20.868Z,97606.06
2023-01-19T23:31:55.479Z,97601.45
2023-01-19T23:34:30.989Z,97607.19
2023-01-19T23:37:03.898Z,97601.02
2023-01-19T23:39:36.854Z,97602.58
2023-01-19T23:42:12.185Z,97603.46
2023-01-19T23:44:45.222Z,97598.91
2023-01-19T23:47:21.780Z,97596.55
2023-01-19T23:49:57.901Z,97599.39
2023-01-19T23:52:33.567Z,97602.02
2023-01-19T23:55:13.302Z,97610.90
2023-01-19T23:57:46.131Z,97612.28
